EGLL/LHR METAR and TAF weather

Enter ICAO airport designator
Station Type Date Time Source
EGLL METAR 2019/02/23 17:20 UTC NOAA

EGLL 231720Z AUTO 16005KT 9999 NCD 14/07 Q1033 NOSIG


Station Type Date Time Source
EGLL Decoded METAR 2019/02/23 17:20 UTC NOAA

London / Heathrow Airport, United Kingdom (EGLL) 51-29N 000-27W 0M
Feb 23, 2019 - 12:20 PM EST / 2019.02.23 1720 UTC
Wind: from the SSE (160 degrees) at 6 MPH (5 KT):0
Visibility: greater than 7 mile(s):0
Temperature: 57 F (14 C)
Dew Point: 44 F (7 C)
Relative Humidity: 62%
Pressure (altimeter): 30.50 in. Hg (1033 hPa)
ob: EGLL 231720Z AUTO 16005KT 9999 NCD 14/07 Q1033 NOSIG
cycle: 17

Station Type Date Time Source
EGLL TAF 2019/02/23 18:06 UTC NOAA

TAF EGLL 231654Z 2318/2424 13005KT CAVOK
BECMG 2318/2321 7000
TEMPO 2321/2409 3000 BR PROB30 2404/2409 0300 FG VV///


Example: see airport list